createdAt,value
2023-01-15T00:00:14.009Z,956.58
2023-01-15T00:02:40.401Z,956.62
2023-01-15T00:05:06.765Z,956.61
2023-01-15T00:07:33.115Z,956.58
2023-01-15T00:09:59.466Z,956.58
2023-01-15T00:12:25.834Z,956.54
2023-01-15T00:14:52.244Z,956.56
2023-01-15T00:17:18.695Z,956.53
2023-01-15T00:19:45.078Z,956.58
2023-01-15T00:22:11.402Z,956.56
2023-01-15T00:24:38.084Z,956.50
2023-01-15T00:27:04.392Z,956.55
2023-01-15T00:29:30.859Z,956.55
2023-01-15T00:31:57.256Z,956.57
2023-01-15T00:34:23.648Z,956.59
2023-01-15T00:36:49.968Z,956.63
2023-01-15T00:39:16.415Z,956.52
2023-01-15T00:41:42.817Z,956.56
2023-01-15T00:44:09.247Z,956.47
2023-01-15T00:46:35.690Z,956.53
2023-01-15T00:49:01.956Z,956.47
2023-01-15T00:51:28.356Z,956.46
2023-01-15T00:53:54.942Z,956.38
2023-01-15T00:56:21.375Z,956.40
2023-01-15T00:58:47.736Z,956.44
2023-01-15T01:01:14.232Z,956.46
2023-01-15T01:03:40.482Z,956.48
2023-01-15T01:06:06.796Z,956.51
2023-01-15T01:08:33.203Z,956.51
2023-01-15T01:10:59.601Z,956.50
2023-01-15T01:13:25.964Z,956.41
2023-01-15T01:15:52.522Z,956.37
2023-01-15T01:18:18.808Z,956.46
2023-01-15T01:20:45.167Z,956.42
2023-01-15T01:23:11.518Z,956.44
2023-01-15T01:25:37.877Z,956.41
2023-01-15T01:28:04.189Z,956.41
2023-01-15T01:30:30.537Z,956.36
2023-01-15T01:32:56.934Z,956.35
2023-01-15T01:35:23.334Z,956.34
2023-01-15T01:37:49.771Z,956.34
2023-01-15T01:40:16.120Z,956.36
2023-01-15T01:42:42.515Z,956.40
2023-01-15T01:45:08.910Z,956.40
2023-01-15T01:47:35.281Z,956.42
2023-01-15T01:50:01.593Z,956.38
2023-01-15T01:52:27.952Z,956.28
2023-01-15T01:54:54.381Z,956.28
2023-01-15T01:57:20.795Z,956.32
2023-01-15T01:59:47.144Z,956.31
2023-01-15T02:02:13.557Z,956.33
2023-01-15T02:04:39.780Z,956.25
2023-01-15T02:07:06.185Z,956.26
2023-01-15T02:09:32.591Z,956.25
2023-01-15T02:11:59.006Z,956.24
2023-01-15T02:14:25.426Z,956.26
2023-01-15T02:16:51.771Z,956.23
2023-01-15T02:19:18.171Z,956.25
2023-01-15T02:21:44.536Z,956.21
2023-01-15T02:24:10.944Z,956.20
2023-01-15T02:26:37.528Z,956.26
2023-01-15T02:29:03.873Z,956.23
2023-01-15T02:31:30.266Z,956.23
2023-01-15T02:33:56.522Z,956.22
2023-01-15T02:36:22.929Z,956.15
2023-01-15T02:38:49.244Z,956.07
2023-01-15T02:41:15.630Z,956.13
2023-01-15T02:43:41.998Z,956.12
2023-01-15T02:46:08.341Z,956.10
2023-01-15T02:48:34.834Z,956.14
2023-01-15T02:51:01.227Z,956.09
2023-01-15T02:53:27.534Z,956.10
2023-01-15T02:55:53.913Z,956.12
2023-01-15T02:58:20.309Z,956.11
2023-01-15T03:00:46.717Z,956.14
2023-01-15T03:03:13.163Z,956.19
2023-01-15T03:05:39.474Z,956.23
2023-01-15T03:08:05.844Z,956.18
2023-01-15T03:10:32.236Z,956.19
2023-01-15T03:12:58.599Z,956.22
2023-01-15T03:15:24.946Z,956.21
2023-01-15T03:17:51.339Z,956.23
2023-01-15T03:20:17.749Z,956.26
2023-01-15T03:22:44.124Z,956.23
2023-01-15T03:25:10.424Z,956.17
2023-01-15T03:27:36.798Z,956.19
2023-01-15T03:30:03.242Z,956.24
2023-01-15T03:32:29.584Z,956.20
2023-01-15T03:34:55.951Z,956.22
2023-01-15T03:37:22.312Z,956.23
2023-01-15T03:39:48.702Z,956.19
2023-01-15T03:42:15.046Z,956.23
2023-01-15T03:44:41.456Z,956.21
2023-01-15T03:47:07.818Z,956.27
2023-01-15T03:49:34.229Z,956.30
2023-01-15T03:52:00.636Z,956.29
2023-01-15T03:54:27.406Z,956.28
2023-01-15T03:56:53.781Z,956.29
2023-01-15T03:59:20.128Z,956.24
2023-01-15T04:01:46.596Z,956.27
2023-01-15T04:04:12.918Z,956.27
2023-01-15T04:06:39.517Z,956.21
2023-01-15T04:09:05.836Z,956.22
2023-01-15T04:11:32.248Z,956.16
2023-01-15T04:13:58.678Z,956.21
2023-01-15T04:16:25.099Z,956.22
2023-01-15T04:18:51.449Z,956.16
2023-01-15T04:21:17.817Z,956.12
2023-01-15T04:23:44.229Z,956.13
2023-01-15T04:26:10.562Z,956.22
2023-01-15T04:28:36.886Z,956.21
2023-01-15T04:31:03.274Z,956.14
2023-01-15T04:33:29.659Z,956.19
2023-01-15T04:35:56.296Z,956.22
2023-01-15T04:38:22.640Z,956.19
2023-01-15T04:40:48.952Z,956.20
2023-01-15T04:43:15.266Z,956.24
2023-01-15T04:45:41.625Z,956.25
2023-01-15T04:48:08.030Z,956.25
2023-01-15T04:50:34.437Z,956.23
2023-01-15T04:53:00.753Z,956.25
2023-01-15T04:55:27.083Z,956.27
2023-01-15T04:57:53.504Z,956.30
2023-01-15T05:00:19.846Z,956.31
2023-01-15T05:02:46.291Z,956.32
2023-01-15T05:05:12.613Z,956.40
2023-01-15T05:07:39.013Z,956.36
2023-01-15T05:10:05.374Z,956.35
2023-01-15T05:12:31.729Z,956.31
2023-01-15T05:14:58.151Z,956.32
2023-01-15T05:17:24.412Z,956.40
2023-01-15T05:19:50.729Z,956.29
2023-01-15T05:22:17.148Z,956.35
2023-01-15T05:24:43.466Z,956.39
2023-01-15T05:27:09.779Z,956.33
2023-01-15T05:29:37.254Z,956.36
2023-01-15T05:32:03.649Z,956.34
2023-01-15T05:34:30.048Z,956.37
2023-01-15T05:36:56.452Z,956.34
2023-01-15T05:39:22.804Z,956.29
2023-01-15T05:41:49.238Z,956.25
2023-01-15T05:44:15.501Z,956.33
2023-01-15T05:46:41.881Z,956.37
2023-01-15T05:49:08.281Z,956.33
2023-01-15T05:51:34.679Z,956.38
2023-01-15T05:54:01.033Z,956.37
2023-01-15T05:56:27.389Z,956.46
2023-01-15T05:58:53.776Z,956.49
2023-01-15T06:01:20.235Z,956.45
2023-01-15T06:03:46.553Z,956.42
2023-01-15T06:06:12.854Z,956.45
2023-01-15T06:08:39.215Z,956.45
2023-01-15T06:11:05.575Z,956.44
2023-01-15T06:13:32.002Z,956.40
2023-01-15T06:15:58.390Z,956.43
2023-01-15T06:18:24.780Z,956.41
2023-01-15T06:20:51.059Z,956.41
2023-01-15T06:23:17.415Z,956.38
2023-01-15T06:25:43.780Z,956.32
2023-01-15T06:28:10.096Z,956.37
2023-01-15T06:30:38.578Z,956.35
2023-01-15T06:33:02.870Z,956.38
2023-01-15T06:35:29.184Z,956.33
2023-01-15T06:37:55.538Z,956.42
2023-01-15T06:40:21.947Z,956.43
2023-01-15T06:42:48.479Z,956.41
2023-01-15T06:45:15.169Z,956.37
2023-01-15T06:47:41.743Z,956.34
2023-01-15T06:50:08.150Z,956.39
2023-01-15T06:52:34.469Z,956.37
2023-01-15T06:55:00.838Z,956.37
2023-01-15T06:57:27.211Z,956.38
2023-01-15T06:59:53.561Z,956.40
2023-01-15T07:02:19.940Z,956.41
2023-01-15T07:04:46.415Z,956.41
2023-01-15T07:07:12.750Z,956.36
2023-01-15T07:09:39.083Z,956.39
2023-01-15T07:12:05.437Z,956.39
2023-01-15T07:14:31.802Z,956.40
2023-01-15T07:16:58.127Z,956.47
2023-01-15T07:19:24.546Z,956.43
2023-01-15T07:21:50.912Z,956.41
2023-01-15T07:24:17.653Z,956.46
2023-01-15T07:26:43.960Z,956.47
2023-01-15T07:29:10.261Z,956.50
2023-01-15T07:31:36.693Z,956.57
2023-01-15T07:34:02.940Z,956.53
2023-01-15T07:36:29.283Z,956.56
2023-01-15T07:38:55.715Z,956.54
2023-01-15T07:41:22.068Z,956.55
2023-01-15T07:43:48.477Z,956.52
2023-01-15T07:46:14.804Z,956.48
2023-01-15T07:48:41.231Z,956.50
2023-01-15T07:51:07.584Z,956.48
2023-01-15T07:53:33.949Z,956.48
2023-01-15T07:56:00.547Z,956.52
2023-01-15T07:58:26.918Z,956.46
2023-01-15T08:00:53.326Z,956.51
2023-01-15T08:03:19.741Z,956.41
2023-01-15T08:05:46.051Z,956.39
2023-01-15T08:08:12.413Z,956.40
2023-01-15T08:10:38.873Z,956.50
2023-01-15T08:13:05.185Z,956.50
2023-01-15T08:15:31.598Z,956.51
2023-01-15T08:17:57.956Z,956.55
2023-01-15T08:20:24.352Z,956.58
2023-01-15T08:22:50.801Z,956.56
2023-01-15T08:25:17.171Z,956.61
2023-01-15T08:27:43.554Z,956.67
2023-01-15T08:30:09.955Z,956.57
2023-01-15T08:32:36.380Z,956.65
2023-01-15T08:35:02.744Z,956.65
2023-01-15T08:37:29.310Z,956.63
2023-01-15T08:39:55.671Z,956.61
2023-01-15T08:42:21.984Z,956.67
2023-01-15T08:44:48.550Z,956.65
2023-01-15T08:47:14.864Z,956.68
2023-01-15T08:49:41.234Z,956.65
2023-01-15T08:52:07.614Z,956.55
2023-01-15T08:54:33.932Z,956.62
2023-01-15T08:57:00.290Z,956.62
2023-01-15T08:59:26.657Z,956.50
2023-01-15T09:01:53.048Z,956.56
2023-01-15T09:04:19.366Z,956.57
2023-01-15T09:06:45.649Z,956.53
2023-01-15T09:09:12.338Z,956.53
2023-01-15T09:11:38.667Z,956.52
2023-01-15T09:14:05.026Z,956.54
2023-01-15T09:16:31.418Z,956.55
2023-01-15T09:18:57.757Z,956.45
2023-01-15T09:21:24.110Z,956.44
2023-01-15T09:23:50.488Z,956.47
2023-01-15T09:26:16.871Z,956.42
2023-01-15T09:28:43.267Z,956.44
2023-01-15T09:31:09.701Z,956.40
2023-01-15T09:33:36.082Z,956.29
2023-01-15T09:36:02.489Z,956.34
2023-01-15T09:38:28.831Z,956.29
2023-01-15T09:40:55.132Z,956.26
2023-01-15T09:43:21.514Z,956.29
2023-01-15T09:45:47.903Z,956.14
2023-01-15T09:48:14.202Z,956.18
2023-01-15T09:50:40.634Z,956.09
2023-01-15T09:53:07.019Z,956.05
2023-01-15T09:55:33.385Z,956.01
2023-01-15T09:57:59.827Z,955.87
2023-01-15T10:00:26.225Z,955.86
2023-01-15T10:02:52.558Z,955.83
2023-01-15T10:05:18.976Z,955.80
2023-01-15T10:07:45.325Z,955.74
2023-01-15T10:10:11.632Z,955.70
2023-01-15T10:12:38.171Z,955.64
2023-01-15T10:15:04.805Z,955.62
2023-01-15T10:17:31.125Z,955.52
2023-01-15T10:19:57.474Z,955.56
2023-01-15T10:22:23.839Z,955.46
2023-01-15T10:24:50.262Z,955.47
2023-01-15T10:27:16.670Z,955.41
2023-01-15T10:29:43.030Z,955.38
2023-01-15T10:32:09.428Z,955.36
2023-01-15T10:34:35.855Z,955.35
2023-01-15T10:37:02.242Z,955.28
2023-01-15T10:39:28.579Z,955.22
2023-01-15T10:41:54.975Z,955.15
2023-01-15T10:44:21.336Z,955.13
2023-01-15T10:46:47.623Z,955.11
2023-01-15T10:49:14.037Z,955.07
2023-01-15T10:51:40.389Z,955.08
2023-01-15T10:54:06.748Z,954.87
2023-01-15T10:56:33.155Z,954.94
2023-01-15T10:58:59.248Z,954.86
2023-01-15T11:01:25.775Z,954.84
2023-01-15T11:03:51.999Z,954.84
2023-01-15T11:06:18.470Z,954.75
2023-01-15T11:11:11.298Z,954.66
2023-01-15T11:13:37.647Z,954.74
2023-01-15T11:16:04.078Z,954.74
2023-01-15T11:18:30.462Z,954.62
2023-01-15T11:20:56.825Z,954.56
2023-01-15T11:23:23.161Z,954.53
2023-01-15T11:25:49.610Z,954.46
2023-01-15T11:28:15.969Z,954.50
2023-01-15T11:30:42.344Z,954.45
2023-01-15T11:33:08.755Z,954.42
2023-01-15T11:35:35.098Z,954.40
2023-01-15T11:38:01.432Z,954.32
2023-01-15T11:40:27.910Z,954.25
2023-01-15T11:42:54.336Z,954.15
2023-01-15T11:45:20.708Z,954.09
2023-01-15T11:47:47.137Z,954.11
2023-01-15T11:50:13.486Z,954.10
2023-01-15T11:52:39.900Z,954.18
2023-01-15T11:55:06.269Z,954.03
2023-01-15T11:57:32.588Z,953.99
2023-01-15T11:59:58.952Z,954.03
2023-01-15T12:02:25.560Z,954.01
2023-01-15T12:04:52.030Z,954.03
2023-01-15T12:07:18.238Z,954.04
2023-01-15T12:09:44.624Z,954.00
2023-01-15T12:12:10.980Z,953.94
2023-01-15T12:14:37.305Z,953.89
2023-01-15T12:17:03.709Z,953.89
2023-01-15T12:19:30.114Z,953.85
2023-01-15T12:21:56.456Z,953.86
2023-01-15T12:24:22.868Z,953.82
2023-01-15T12:26:49.216Z,953.80
2023-01-15T12:29:15.636Z,953.79
2023-01-15T12:31:42.156Z,953.71
2023-01-15T12:34:08.424Z,953.74
2023-01-15T12:36:34.822Z,953.71
2023-01-15T12:39:01.232Z,953.61
2023-01-15T12:41:27.582Z,953.68
2023-01-15T12:43:53.957Z,953.66
2023-01-15T12:46:20.325Z,953.67
2023-01-15T12:48:46.771Z,953.63
2023-01-15T12:51:13.098Z,953.57
2023-01-15T12:53:39.497Z,953.58
2023-01-15T12:56:06.111Z,953.45
2023-01-15T12:58:32.513Z,953.46
2023-01-15T13:00:58.946Z,953.45
2023-01-15T13:03:25.195Z,953.48
2023-01-15T13:05:51.610Z,953.40
2023-01-15T13:08:18.282Z,953.44
2023-01-15T13:10:44.691Z,953.37
2023-01-15T13:13:11.055Z,953.41
2023-01-15T13:15:37.714Z,953.37
2023-01-15T13:18:04.077Z,953.33
2023-01-15T13:20:30.487Z,953.25
2023-01-15T13:22:56.889Z,953.31
2023-01-15T13:25:26.165Z,953.29
2023-01-15T13:27:50.634Z,953.30
2023-01-15T13:30:17.061Z,953.22
2023-01-15T13:32:43.419Z,953.18
2023-01-15T13:35:11.980Z,953.11
2023-01-15T13:37:38.329Z,953.12
2023-01-15T13:40:04.664Z,953.12
2023-01-15T13:42:31.132Z,953.14
2023-01-15T13:44:57.537Z,953.12
2023-01-15T13:47:23.861Z,953.10
2023-01-15T13:49:50.323Z,953.12
2023-01-15T13:52:16.632Z,953.09
2023-01-15T13:54:43.095Z,953.11
2023-01-15T13:57:10.598Z,953.13
2023-01-15T13:59:36.911Z,953.14
2023-01-15T14:02:03.283Z,953.10
2023-01-15T14:04:29.710Z,953.04
2023-01-15T14:06:56.061Z,953.01
2023-01-15T14:09:22.463Z,953.02
2023-01-15T14:11:48.830Z,952.98
2023-01-15T14:14:15.145Z,953.00
2023-01-15T14:16:41.568Z,953.11
2023-01-15T14:19:08.204Z,953.08
2023-01-15T14:21:34.371Z,952.96
2023-01-15T14:24:00.669Z,952.99
2023-01-15T14:26:27.121Z,953.05
2023-01-15T14:28:53.365Z,952.99
2023-01-15T14:31:19.770Z,953.01
2023-01-15T14:33:46.093Z,953.02
2023-01-15T14:36:12.524Z,953.01
2023-01-15T14:38:38.935Z,953.02
2023-01-15T14:41:05.303Z,953.01
2023-01-15T14:43:31.740Z,952.92
2023-01-15T14:45:59.330Z,952.98
2023-01-15T14:48:25.693Z,952.95
2023-01-15T14:50:52.176Z,952.99
2023-01-15T14:53:18.544Z,952.94
2023-01-15T14:55:44.984Z,952.90
2023-01-15T14:58:11.441Z,953.02
2023-01-15T15:00:38.910Z,952.97
2023-01-15T15:03:05.341Z,952.94
2023-01-15T15:05:33.877Z,953.03
2023-01-15T15:08:00.656Z,952.99
2023-01-15T15:10:26.989Z,952.98
2023-01-15T15:12:53.819Z,953.02
2023-01-15T15:15:20.143Z,953.00
2023-01-15T15:17:46.560Z,952.99
2023-01-15T15:20:13.334Z,953.00
2023-01-15T15:22:39.656Z,953.06
2023-01-15T15:25:06.029Z,952.95
2023-01-15T15:27:32.558Z,952.99
2023-01-15T15:29:58.908Z,952.99
2023-01-15T15:32:25.469Z,952.95
2023-01-15T15:34:51.805Z,953.02
2023-01-15T15:37:18.268Z,953.03
2023-01-15T15:39:45.762Z,953.08
2023-01-15T15:42:12.174Z,953.07
2023-01-15T15:44:38.705Z,953.13
2023-01-15T15:47:05.079Z,953.10
2023-01-15T15:49:31.436Z,953.13
2023-01-15T15:51:57.810Z,953.08
2023-01-15T15:54:24.272Z,953.11
2023-01-15T15:56:50.558Z,953.07
2023-01-15T15:59:16.975Z,953.07
2023-01-15T16:01:43.558Z,953.05
2023-01-15T16:04:09.743Z,953.10
2023-01-15T16:06:38.273Z,953.02
2023-01-15T16:09:04.760Z,953.04
2023-01-15T16:11:31.022Z,953.05
2023-01-15T16:13:57.383Z,953.11
2023-01-15T16:16:23.694Z,953.07
2023-01-15T16:18:50.051Z,953.14
2023-01-15T16:21:16.443Z,953.12
2023-01-15T16:23:43.052Z,953.18
2023-01-15T16:26:09.444Z,953.06
2023-01-15T16:28:35.839Z,953.14
2023-01-15T16:31:02.232Z,953.11
2023-01-15T16:33:28.612Z,953.12
2023-01-15T16:35:54.930Z,953.07
2023-01-15T16:38:21.269Z,953.13
2023-01-15T16:40:47.930Z,953.07
2023-01-15T16:43:14.253Z,953.14
2023-01-15T16:45:40.830Z,953.11
2023-01-15T16:48:07.226Z,953.17
2023-01-15T16:50:33.610Z,953.12
2023-01-15T16:52:59.974Z,953.11
2023-01-15T16:55:26.393Z,953.07
2023-01-15T16:57:52.764Z,953.15
2023-01-15T17:00:19.115Z,953.22
2023-01-15T17:02:45.488Z,953.16
2023-01-15T17:05:11.965Z,953.18
2023-01-15T17:07:38.215Z,953.11
2023-01-15T17:10:04.636Z,953.16
2023-01-15T17:12:30.960Z,953.14
2023-01-15T17:14:57.357Z,953.13
2023-01-15T17:17:23.724Z,953.09
2023-01-15T17:19:50.107Z,953.19
2023-01-15T17:22:16.560Z,953.24
2023-01-15T17:24:42.869Z,953.17
2023-01-15T17:27:09.361Z,953.15
2023-01-15T17:29:35.764Z,953.13
2023-01-15T17:32:04.372Z,953.12
2023-01-15T17:34:28.560Z,953.18
2023-01-15T17:36:54.960Z,953.14
2023-01-15T17:39:21.365Z,953.16
2023-01-15T17:41:47.697Z,953.17
2023-01-15T17:44:14.291Z,953.15
2023-01-15T17:46:40.626Z,953.16
2023-01-15T17:49:06.987Z,953.11
2023-01-15T17:51:33.419Z,953.15
2023-01-15T17:53:59.822Z,952.99
2023-01-15T17:56:26.172Z,953.04
2023-01-15T17:58:52.565Z,953.13
2023-01-15T18:01:19.099Z,953.08
2023-01-15T18:03:45.299Z,953.08
2023-01-15T18:06:11.753Z,953.05
2023-01-15T18:08:38.145Z,952.98
2023-01-15T18:11:04.801Z,952.97
2023-01-15T18:13:31.242Z,953.02
2023-01-15T18:15:57.697Z,953.01
2023-01-15T18:18:24.161Z,952.99
2023-01-15T18:20:50.566Z,952.93
2023-01-15T18:23:16.911Z,952.99
2023-01-15T18:25:43.359Z,952.93
2023-01-15T18:28:09.784Z,953.00
2023-01-15T18:30:36.212Z,952.98
2023-01-15T18:33:02.881Z,953.03
2023-01-15T18:35:29.006Z,952.99
2023-01-15T18:37:55.411Z,953.05
2023-01-15T18:40:21.794Z,953.02
2023-01-15T18:42:48.192Z,952.99
2023-01-15T18:45:14.592Z,952.95
2023-01-15T18:47:40.929Z,953.00
2023-01-15T18:50:07.302Z,952.87
2023-01-15T18:52:33.777Z,952.88
2023-01-15T18:55:00.175Z,952.84
2023-01-15T18:57:26.502Z,952.85
2023-01-15T18:59:52.950Z,952.84
2023-01-15T19:02:19.383Z,952.88
2023-01-15T19:04:45.716Z,952.83
2023-01-15T19:07:12.120Z,952.82
2023-01-15T19:09:38.485Z,952.86
2023-01-15T19:12:04.851Z,952.78
2023-01-15T19:14:31.197Z,952.81
2023-01-15T19:16:57.575Z,952.79
2023-01-15T19:19:24.377Z,952.87
2023-01-15T19:21:50.742Z,952.84
2023-01-15T19:24:17.129Z,952.81
2023-01-15T19:26:43.561Z,952.82
2023-01-15T19:29:09.967Z,952.83
2023-01-15T19:31:37.066Z,952.77
2023-01-15T19:34:31.760Z,952.77
2023-01-15T19:36:29.142Z,952.83
2023-01-15T19:38:55.486Z,952.85
2023-01-15T19:41:22.321Z,952.84
2023-01-15T19:43:48.789Z,952.87
2023-01-15T19:46:15.264Z,952.88
2023-01-15T19:48:41.539Z,952.85
2023-01-15T19:51:07.934Z,952.81
2023-01-15T19:53:34.460Z,952.79
2023-01-15T19:56:00.822Z,952.79
2023-01-15T19:58:27.185Z,952.76
2023-01-15T20:00:54.092Z,952.73
2023-01-15T20:03:20.445Z,952.72
2023-01-15T20:05:46.810Z,952.74
2023-01-15T20:08:13.239Z,952.70
2023-01-15T20:10:39.615Z,952.78
2023-01-15T20:13:06.022Z,952.77
2023-01-15T20:15:32.335Z,952.78
2023-01-15T20:17:59.957Z,952.83
2023-01-15T20:20:26.305Z,952.88
2023-01-15T20:22:52.701Z,952.80
2023-01-15T20:25:19.097Z,952.70
2023-01-15T20:27:45.593Z,952.69
2023-01-15T20:30:12.005Z,952.75
2023-01-15T20:32:38.682Z,952.67
2023-01-15T20:35:05.049Z,952.67
2023-01-15T20:37:31.439Z,952.63
2023-01-15T20:39:57.831Z,952.63
2023-01-15T20:42:24.184Z,952.60
2023-01-15T20:44:50.587Z,952.63
2023-01-15T20:47:16.998Z,952.59
2023-01-15T20:49:43.451Z,952.61
2023-01-15T20:52:09.845Z,952.65
2023-01-15T20:54:36.136Z,952.62
2023-01-15T20:57:02.603Z,952.66
2023-01-15T20:59:29.004Z,952.64
2023-01-15T21:01:55.453Z,952.67
2023-01-15T21:04:21.872Z,952.69
2023-01-15T21:06:48.200Z,952.67
2023-01-15T21:09:14.644Z,952.57
2023-01-15T21:11:41.008Z,952.65
2023-01-15T21:14:07.407Z,952.58
2023-01-15T21:16:34.147Z,952.60
2023-01-15T21:19:00.548Z,952.52
2023-01-15T21:21:26.877Z,952.54
2023-01-15T21:23:53.379Z,952.55
2023-01-15T21:26:19.826Z,952.49
2023-01-15T21:28:46.224Z,952.46
2023-01-15T21:31:12.613Z,952.42
2023-01-15T21:33:39.002Z,952.42
2023-01-15T21:36:05.358Z,952.43
2023-01-15T21:38:31.724Z,952.39
2023-01-15T21:40:58.043Z,952.35
2023-01-15T21:43:24.417Z,952.45
2023-01-15T21:45:50.948Z,952.44
2023-01-15T21:48:17.298Z,952.44
2023-01-15T21:50:43.675Z,952.41
2023-01-15T21:53:09.989Z,952.35
2023-01-15T21:55:36.394Z,952.36
2023-01-15T21:58:02.761Z,952.32
2023-01-15T22:00:30.331Z,952.32
2023-01-15T22:02:56.731Z,952.26
2023-01-15T22:05:23.007Z,952.27
2023-01-15T22:07:49.421Z,952.25
2023-01-15T22:10:15.771Z,952.25
2023-01-15T22:12:42.108Z,952.25
2023-01-15T22:15:08.528Z,952.16
2023-01-15T22:17:34.971Z,952.18
2023-01-15T22:20:01.452Z,952.19
2023-01-15T22:22:29.975Z,952.13
2023-01-15T22:24:56.338Z,952.13
2023-01-15T22:27:22.751Z,952.09
2023-01-15T22:29:49.157Z,952.08
2023-01-15T22:32:15.504Z,952.06
2023-01-15T22:34:41.941Z,952.00
2023-01-15T22:37:08.314Z,952.04
2023-01-15T22:39:34.678Z,951.97
2023-01-15T22:42:01.043Z,952.05
2023-01-15T22:44:27.446Z,951.98
2023-01-15T22:46:53.773Z,951.93
2023-01-15T22:49:20.500Z,951.99
2023-01-15T22:51:46.859Z,951.93
2023-01-15T22:54:13.269Z,951.92
2023-01-15T22:56:39.688Z,951.89
2023-01-15T22:59:06.048Z,951.91
2023-01-15T23:01:32.583Z,951.88
2023-01-15T23:03:58.837Z,951.88
2023-01-15T23:06:25.188Z,951.81
2023-01-15T23:08:51.604Z,951.76
2023-01-15T23:11:18.021Z,951.81
2023-01-15T23:13:44.331Z,951.83
2023-01-15T23:16:10.732Z,951.79
2023-01-15T23:18:37.019Z,951.75
2023-01-15T23:21:03.471Z,951.71
2023-01-15T23:23:29.745Z,951.73
2023-01-15T23:25:56.160Z,951.67
2023-01-15T23:28:22.578Z,951.77
2023-01-15T23:30:49.055Z,951.72
2023-01-15T23:33:15.460Z,951.64
2023-01-15T23:35:42.190Z,951.60
2023-01-15T23:38:08.508Z,951.56
2023-01-15T23:40:34.886Z,951.61
2023-01-15T23:43:01.246Z,951.62
2023-01-15T23:45:27.567Z,951.63
2023-01-15T23:47:53.932Z,951.68
2023-01-15T23:50:20.381Z,951.65
2023-01-15T23:52:46.785Z,951.67
2023-01-15T23:55:13.351Z,951.69
2023-01-15T23:57:39.775Z,951.69
